Time;durP1;ratioP1;P1;durP2;ratioP2;P2;SDS_P1;SDS_P2;PMS_P1;PMS_P2;Temp;Humidity;BMP_temperature;BMP_pressure;BME280_temperature;BME280_humidity;BME280_pressure;Samples;Min_cycle;Max_cycle;Signal;HPM_P1;HPM_P2
2021/12/18 00:01:04;;;;;;;;;;;;;;;0.29;100.00;99660.05;1727665;83;20095;-74
2021/12/18 00:03:30;;;;;;;;;;;;;;;0.30;100.00;99668.97;1727322;83;20438;-74
2021/12/18 00:05:57;;;;;;;;;;;;;;;0.30;100.00;99679.24;1727511;82;20585;-74
2021/12/18 00:08:23;;;;;;;;;;;;;;;0.32;100.00;99679.00;1727790;82;20471;-74
2021/12/18 00:10:49;;;;;;;;;;;;;;;0.33;100.00;99671.18;1727527;83;21489;-74
2021/12/18 00:13:16;;;;;;;;;;;;;;;0.33;100.00;99673.35;1727448;83;20474;-72
2021/12/18 00:15:43;;;;;;;;;;;;;;;0.33;100.00;99670.65;1727477;82;20116;-72
2021/12/18 00:18:10;;;;;;;;;;;;;;;0.30;100.00;99676.55;1727532;83;20112;-72
2021/12/18 00:20:38;;;;;;;;;;;;;;;0.29;100.00;99680.30;1727451;83;20123;-72
2021/12/18 00:23:05;;;;;;;;;;;;;;;0.29;100.00;99684.36;1727589;82;21122;-73
2021/12/18 00:25:31;;;;;;;;;;;;;;;0.31;100.00;99689.52;1727396;83;20088;-72
2021/12/18 00:27:58;;;;;;;;;;;;;;;0.30;100.00;99689.23;1727591;82;20083;-72
2021/12/18 00:30:25;;;;;;;;;;;;;;;0.28;100.00;99685.42;1727567;83;20111;-71
2021/12/18 00:32:53;;;;;;;;;;;;;;;0.28;100.00;99692.70;1727523;82;20096;-72
2021/12/18 00:35:19;;;;;;;;;;;;;;;0.24;100.00;99689.67;1727546;83;21517;-72
2021/12/18 00:37:45;;;;;;;;;;;;;;;0.22;100.00;99697.73;1727470;82;20092;-73
2021/12/18 00:40:18;;;;;;;;;;;;;;;0.21;100.00;99692.04;1727517;83;20124;-72
2021/12/18 00:42:57;;;;;;;;;;;;;;;0.22;100.00;99695.84;1727194;83;20107;-73
2021/12/18 00:45:18;;;;;;;;;;;;;;;0.23;100.00;99699.37;1726801;83;20099;-73
2021/12/18 00:47:45;;;;;;;;;;;;;;;0.24;100.00;99699.66;1727664;83;21061;-73
2021/12/18 00:50:15;;;;;;;;;;;;;;;0.24;100.00;99694.25;1727588;82;20092;-72
2021/12/18 00:52:42;;;;;;;;;;;;;;;0.24;100.00;99696.42;1726918;83;20096;-73
2021/12/18 00:55:08;;;;;;;;;;;;;;;0.22;100.00;99692.33;1727631;83;20096;-73
2021/12/18 00:57:36;;;;;;;;;;;;;;;0.20;100.00;99694.45;1727664;83;20143;-74
2021/12/18 01:00:05;;;;;;;;;;;;;;;0.20;100.00;99697.97;1727656;83;21142;-74
2021/12/18 01:02:32;;;;;;;;;;;;;;;0.22;100.00;99697.20;1727673;83;20124;-74
2021/12/18 01:04:58;;;;;;;;;;;;;;;0.21;100.00;99684.76;1727582;82;20132;-74
2021/12/18 01:07:25;;;;;;;;;;;;;;;0.22;100.00;99693.67;1727673;83;20116;-73
2021/12/18 01:12:43;;;;;;;;;;;;;;;0.22;100.00;99695.84;1727751;82;20434;-73
2021/12/18 01:23:16;;;;;;;;;;;;;;;0.16;100.00;99709.50;1727973;83;20423;-74
2021/12/18 01:25:42;;;;;;;;;;;;;;;0.13;100.00;99707.29;1707014;83;21461;-72
2021/12/18 01:28:08;;;;;;;;;;;;;;;0.10;100.00;99706.42;1727531;82;20112;-73
2021/12/18 01:30:35;;;;;;;;;;;;;;;0.06;100.00;99707.97;1727692;82;20120;-73
2021/12/18 01:33:01;;;;;;;;;;;;;;;0.03;100.00;99716.55;1727591;83;20084;-72
2021/12/18 01:35:28;;;;;;;;;;;;;;;0.04;100.00;99712.80;1727928;82;20099;-72
2021/12/18 01:37:54;;;;;;;;;;;;;;;0.02;100.00;99716.27;1727932;82;21480;-72
2021/12/18 01:40:22;;;;;;;;;;;;;;;0.02;100.00;99720.31;1727550;83;20149;-72
2021/12/18 01:53:34;;;;;;;;;;;;;;;-0.01;100.00;99714.91;1727649;83;20084;-73
2021/12/18 01:56:01;;;;;;;;;;;;;;;-0.03;100.00;99709.75;1727691;82;20116;-73
2021/12/18 01:58:28;;;;;;;;;;;;;;;-0.04;100.00;99717.55;1727580;83;20083;-73
2021/12/18 02:00:57;;;;;;;;;;;;;;;-0.10;100.00;99729.84;1727555;83;20156;-73
2021/12/18 02:03:24;;;;;;;;;;;;;;;-0.13;100.00;99724.41;1727554;83;21472;-73
2021/12/18 02:05:50;;;;;;;;;;;;;;;-0.12;100.00;99725.22;1727524;83;20095;-73
2021/12/18 02:08:19;;;;;;;;;;;;;;;-0.12;100.00;99731.44;1727648;83;20119;-73
2021/12/18 02:10:54;;;;;;;;;;;;;;;-0.13;100.00;99727.09;1727325;83;20781;-73
2021/12/18 02:21:22;;;;;;;;;;;;;;;-0.11;100.00;99729.03;1735701;82;20453;-73
2021/12/18 02:23:48;;;;;;;;;;;;;;;-0.10;100.00;99740.11;1735625;82;20204;-72
2021/12/18 02:26:15;;;;;;;;;;;;;;;-0.11;100.00;99731.73;1735938;82;20087;-72
2021/12/18 02:28:48;;;;;;;;;;;;;;;-0.12;100.00;99734.13;1735701;82;21807;-72
2021/12/18 02:31:09;;;;;;;;;;;;;;;-0.09;100.00;99738.23;1734545;82;20088;-73
2021/12/18 02:33:36;;;;;;;;;;;;;;;-0.07;100.00;99730.71;1735664;82;20258;-73
2021/12/18 02:36:06;;;;;;;;;;;;;;;-0.08;100.00;99735.82;1735935;82;20117;-73
2021/12/18 02:43:59;;;;;;;;;;;;;;;-0.10;100.00;99748.20;1735745;82;20095;-74
2021/12/18 02:46:25;;;;;;;;;;;;;;;-0.09;100.00;99747.67;1735944;82;20438;-73
2021/12/18 02:48:53;;;;;;;;;;;;;;;-0.09;100.00;99757.94;1735612;82;20458;-72
2021/12/18 02:51:19;;;;;;;;;;;;;;;-0.06;100.00;99758.81;1735894;82;20429;-72
2021/12/18 02:53:51;;;;;;;;;;;;;;;-0.06;100.00;99756.64;1735620;82;21944;-71
2021/12/18 02:56:24;;;;;;;;;;;;;;;-0.07;100.00;99761.22;1735704;82;20095;-72
2021/12/18 02:58:50;;;;;;;;;;;;;;;-0.08;100.00;99766.86;1735212;82;20425;-72
2021/12/18 03:01:18;;;;;;;;;;;;;;;-0.09;100.00;99766.56;1735566;82;20123;-72
2021/12/18 03:03:46;;;;;;;;;;;;;;;-0.11;100.00;99772.20;1735885;82;20426;-73
2021/12/18 03:09:01;;;;;;;;;;;;;;;-0.14;98.92;99767.28;1735978;82;20088;-73
2021/12/18 03:25:09;;;;;;;;;;;;;;;-0.14;100.00;99781.31;1735043;82;20116;-72
2021/12/18 03:27:12;;;;;;;;;;;;;;;-0.19;100.00;99783.91;1729448;82;20088;-73
2021/12/18 03:29:39;;;;;;;;;;;;;;;-0.23;100.00;99784.91;1735700;82;20115;-73
2021/12/18 03:32:06;;;;;;;;;;;;;;;-0.26;100.00;99789.44;1735730;82;39228;-72
2021/12/18 03:34:33;;;;;;;;;;;;;;;-0.29;100.00;99795.31;1735713;82;20099;-73
2021/12/18 03:37:00;;;;;;;;;;;;;;;-0.30;100.00;99807.16;1735594;82;20092;-73
2021/12/18 03:39:26;;;;;;;;;;;;;;;-0.32;100.00;99802.53;1735549;82;20183;-74
2021/12/18 03:41:53;;;;;;;;;;;;;;;-0.33;100.00;99803.59;1735582;82;20111;-74
2021/12/18 03:44:20;;;;;;;;;;;;;;;-0.32;100.00;99805.23;1735648;82;22151;-74
2021/12/18 03:46:47;;;;;;;;;;;;;;;-0.33;100.00;99802.23;1735525;82;20179;-74
2021/12/18 03:49:13;;;;;;;;;;;;;;;-0.34;100.00;99809.52;1735606;82;20120;-74
2021/12/18 03:51:40;;;;;;;;;;;;;;;-0.34;100.00;99808.70;1735570;82;20083;-74
2021/12/18 03:54:06;;;;;;;;;;;;;;;-0.37;100.00;99813.22;1735936;82;20174;-72
2021/12/18 03:56:32;;;;;;;;;;;;;;;-0.41;100.00;99815.56;1735576;82;21976;-72
2021/12/18 03:58:59;;;;;;;;;;;;;;;-0.43;100.00;99816.33;1705546;82;20088;-73
2021/12/18 04:01:25;;;;;;;;;;;;;;;-0.43;100.00;99815.52;1735591;82;20083;-73
2021/12/18 04:03:51;;;;;;;;;;;;;;;-0.42;100.00;99818.50;1735775;81;20135;-73
2021/12/18 04:06:19;;;;;;;;;;;;;;;-0.41;100.00;99822.84;1735662;82;20071;-73
2021/12/18 04:08:46;;;;;;;;;;;;;;;-0.40;100.00;99823.13;1735649;82;21151;-73
2021/12/18 04:11:12;;;;;;;;;;;;;;;-0.38;100.00;99820.48;1735577;82;20097;-72
2021/12/18 04:13:45;;;;;;;;;;;;;;;-0.39;100.00;99824.24;1735630;82;20083;-73
2021/12/18 04:16:11;;;;;;;;;;;;;;;-0.38;100.00;99833.98;1739955;82;20142;-73
2021/12/18 04:18:37;;;;;;;;;;;;;;;-0.38;100.00;99826.41;1743882;82;20131;-73
2021/12/18 04:21:04;;;;;;;;;;;;;;;-0.37;100.00;99815.91;1743829;82;21149;-73
2021/12/18 04:23:30;;;;;;;;;;;;;;;-0.37;100.00;99822.12;1743886;82;20123;-73
2021/12/18 04:25:57;;;;;;;;;;;;;;;-0.36;99.76;99831.86;1744008;82;20486;-73
2021/12/18 04:28:24;;;;;;;;;;;;;;;-0.38;99.49;99829.11;1743860;82;20095;-72
2021/12/18 04:30:50;;;;;;;;;;;;;;;-0.36;99.54;99823.77;1743942;82;20418;-72
2021/12/18 04:33:17;;;;;;;;;;;;;;;-0.37;98.79;99827.52;1743876;82;21958;-72
2021/12/18 04:35:43;;;;;;;;;;;;;;;-0.37;98.55;99824.00;1743880;82;20151;-73
2021/12/18 04:38:09;;;;;;;;;;;;;;;-0.39;98.78;99824.77;1744198;82;20147;-73
2021/12/18 04:40:36;;;;;;;;;;;;;;;-0.37;98.72;99825.35;1743876;82;20468;-73
2021/12/18 04:43:04;;;;;;;;;;;;;;;-0.38;98.62;99821.02;1743933;82;20454;-73
2021/12/18 04:45:30;;;;;;;;;;;;;;;-0.36;98.61;99819.72;1743860;82;21161;-72
2021/12/18 04:47:57;;;;;;;;;;;;;;;-0.35;98.07;99824.06;1744054;82;20460;-73
2021/12/18 04:50:23;;;;;;;;;;;;;;;-0.35;96.79;99832.68;1743825;82;20119;-73
2021/12/18 04:52:50;;;;;;;;;;;;;;;-0.36;97.08;99830.52;1744118;82;20434;-73
2021/12/18 04:55:17;;;;;;;;;;;;;;;-0.36;97.13;99828.34;1743848;82;20481;-72
2021/12/18 04:57:43;;;;;;;;;;;;;;;-0.37;96.94;99826.17;1743850;82;21144;-73
2021/12/18 05:00:12;;;;;;;;;;;;;;;-0.36;96.91;99838.61;1743767;82;20083;-74
2021/12/18 05:02:42;;;;;;;;;;;;;;;-0.37;96.73;99844.23;1744120;82;20103;-74
2021/12/18 05:05:13;;;;;;;;;;;;;;;-0.37;96.18;99845.59;1743775;81;20106;-74
2021/12/18 05:07:40;;;;;;;;;;;;;;;-0.38;96.29;99854.73;1737478;82;20440;-74
2021/12/18 05:10:08;;;;;;;;;;;;;;;-0.40;95.91;99860.37;1728755;82;22213;-74
2021/12/18 05:12:35;;;;;;;;;;;;;;;-0.40;96.20;99866.29;1719647;82;20083;-72
2021/12/18 05:15:01;;;;;;;;;;;;;;;-0.40;96.41;99864.94;1722770;82;20134;-73
2021/12/18 05:17:28;;;;;;;;;;;;;;;-0.40;96.55;99863.06;1716616;83;20222;-72
2021/12/18 05:19:55;;;;;;;;;;;;;;;-0.38;96.68;99861.48;1709536;83;20096;-72
2021/12/18 05:22:22;;;;;;;;;;;;;;;-0.37;96.93;99864.47;1708387;82;21969;-74
2021/12/18 05:24:48;;;;;;;;;;;;;;;-0.37;97.30;99872.56;1721189;82;20134;-73
2021/12/18 05:27:14;;;;;;;;;;;;;;;-0.37;97.97;99877.95;1710846;83;20095;-74
2021/12/18 05:29:41;;;;;;;;;;;;;;;-0.40;98.83;99880.59;1701813;83;20170;-74
2021/12/18 05:32:07;;;;;;;;;;;;;;;-0.43;99.15;99882.94;1702955;83;20196;-73
2021/12/18 05:34:36;;;;;;;;;;;;;;;-0.46;99.46;99888.81;1706069;83;21154;-72
2021/12/18 05:37:15;;;;;;;;;;;;;;;-0.50;100.00;99893.84;1704784;82;20678;-72
2021/12/18 05:39:30;;;;;;;;;;;;;;;-0.52;100.00;99905.92;1700944;83;20086;-73
2021/12/18 05:41:56;;;;;;;;;;;;;;;-0.56;100.00;99902.05;1706360;83;20096;-73
2021/12/18 05:44:24;;;;;;;;;;;;;;;-0.59;100.00;99903.91;1705655;83;20122;-74
2021/12/18 05:46:51;;;;;;;;;;;;;;;-0.60;100.00;99912.52;1704087;82;21117;-74
2021/12/18 05:49:17;;;;;;;;;;;;;;;-0.59;100.00;99920.09;1719343;83;20166;-74
2021/12/18 05:51:43;;;;;;;;;;;;;;;-0.58;99.84;99929.81;1704111;83;20123;-81
2021/12/18 05:54:11;;;;;;;;;;;;;;;-0.57;99.63;99926.86;1724976;82;20214;-78
2021/12/18 05:56:37;;;;;;;;;;;;;;;-0.52;99.81;99926.16;1698457;84;20126;-82
2021/12/18 05:59:03;;;;;;;;;;;;;;;-0.50;99.20;99929.44;1701208;83;21186;-86
2021/12/18 06:01:30;;;;;;;;;;;;;;;-0.47;99.14;99930.31;1726408;83;20473;-84
2021/12/18 06:03:57;;;;;;;;;;;;;;;-0.47;98.43;99928.44;1727369;83;20218;-81
2021/12/18 06:06:23;;;;;;;;;;;;;;;-0.47;98.46;99927.63;1707208;83;20088;-74
2021/12/18 06:08:51;;;;;;;;;;;;;;;-0.46;98.43;99933.31;1724324;82;20192;-72
2021/12/18 06:11:20;;;;;;;;;;;;;;;-0.47;98.41;99929.80;1713800;83;21569;-73
2021/12/18 06:13:51;;;;;;;;;;;;;;;-0.45;98.79;99937.66;1714484;83;20554;-72
2021/12/18 06:16:18;;;;;;;;;;;;;;;-0.43;99.48;99945.80;1709582;82;20196;-73
2021/12/18 06:18:45;;;;;;;;;;;;;;;-0.40;99.58;99951.26;1714528;82;20581;-72
2021/12/18 06:21:15;;;;;;;;;;;;;;;-0.41;99.61;99946.91;1713774;82;20426;-73
2021/12/18 06:23:42;;;;;;;;;;;;;;;-0.43;100.00;99945.80;1714482;82;22284;-72
2021/12/18 06:26:09;;;;;;;;;;;;;;;-0.43;100.00;99935.54;1713961;82;20090;-72
2021/12/18 06:28:35;;;;;;;;;;;;;;;-0.44;100.00;99941.98;1735236;82;20166;-74
2021/12/18 06:31:02;;;;;;;;;;;;;;;-0.46;100.00;99943.57;1735356;82;20119;-72
2021/12/18 06:33:29;;;;;;;;;;;;;;;-0.47;100.00;99941.93;1735078;82;20124;-74
2021/12/18 06:35:55;;;;;;;;;;;;;;;-0.48;100.00;99944.86;1728175;82;21506;-72
2021/12/18 06:38:22;;;;;;;;;;;;;;;-0.49;100.00;99949.43;1733343;82;20100;-73
2021/12/18 06:40:48;;;;;;;;;;;;;;;-0.49;100.00;99951.31;1734415;82;20182;-72
2021/12/18 06:43:16;;;;;;;;;;;;;;;-0.48;100.00;99955.13;1732913;82;20120;-71
2021/12/18 06:45:43;;;;;;;;;;;;;;;-0.52;100.00;99951.25;1731409;82;20434;-71
2021/12/18 06:48:09;;;;;;;;;;;;;;;-0.52;100.00;99953.13;1690683;82;21509;-71
2021/12/18 06:50:37;;;;;;;;;;;;;;;-0.50;100.00;99953.19;1734661;82;20128;-71
2021/12/18 06:53:03;;;;;;;;;;;;;;;-0.48;100.00;99959.70;1733736;82;20138;-74
2021/12/18 06:55:30;;;;;;;;;;;;;;;-0.50;100.00;99954.53;1733743;82;20084;-72
2021/12/18 06:57:57;;;;;;;;;;;;;;;-0.52;100.00;99962.56;1734709;82;20100;-72
2021/12/18 07:00:23;;;;;;;;;;;;;;;-0.51;100.00;99961.51;1733824;82;21126;-71
2021/12/18 07:02:50;;;;;;;;;;;;;;;-0.51;100.00;99956.12;1729926;82;20422;-74
2021/12/18 07:05:16;;;;;;;;;;;;;;;-0.52;100.00;99953.94;1735058;81;20095;-70
2021/12/18 07:07:42;;;;;;;;;;;;;;;-0.49;100.00;99956.70;1735346;82;20170;-73
2021/12/18 07:10:10;;;;;;;;;;;;;;;-0.46;100.00;99956.23;1734452;82;20091;-70
2021/12/18 07:12:36;;;;;;;;;;;;;;;-0.45;100.00;99961.92;1733954;82;21127;-71
2021/12/18 07:15:04;;;;;;;;;;;;;;;-0.42;100.00;99967.67;1734345;83;20099;-70
2021/12/18 07:17:32;;;;;;;;;;;;;;;-0.40;100.00;99969.61;1728995;82;20128;-71
2021/12/18 07:19:58;;;;;;;;;;;;;;;-0.38;100.00;99966.68;1734054;82;20129;-71
2021/12/18 07:22:24;;;;;;;;;;;;;;;-0.40;100.00;99968.27;1733988;83;20088;-73
2021/12/18 07:24:51;;;;;;;;;;;;;;;-0.38;100.00;99976.13;1734127;82;21028;-75
2021/12/18 07:27:18;;;;;;;;;;;;;;;-0.35;100.00;99978.36;1735186;82;20583;-74
2021/12/18 07:29:45;;;;;;;;;;;;;;;-0.32;100.00;99979.23;1734682;82;20949;-74
2021/12/18 07:32:13;;;;;;;;;;;;;;;-0.31;100.00;99982.22;1735824;82;20460;-74
2021/12/18 07:34:40;;;;;;;;;;;;;;;-0.32;100.00;99983.28;1735563;82;20172;-72
2021/12/18 07:37:07;;;;;;;;;;;;;;;-0.35;99.90;99989.97;1735199;82;21603;-72
2021/12/18 07:39:33;;;;;;;;;;;;;;;-0.35;99.78;99990.49;1735529;82;20084;-74
2021/12/18 07:42:00;;;;;;;;;;;;;;;-0.38;99.69;99999.88;1735591;82;20127;-74
2021/12/18 07:44:26;;;;;;;;;;;;;;;-0.38;100.00;100001.22;1735559;82;20084;-74
2021/12/18 07:46:53;;;;;;;;;;;;;;;-0.36;100.00;100003.69;1735619;82;20124;-74
2021/12/18 07:49:19;;;;;;;;;;;;;;;-0.34;100.00;99998.88;1735455;82;21515;-74
2021/12/18 07:51:45;;;;;;;;;;;;;;;-0.31;98.35;99997.59;1735693;82;20453;-74
2021/12/18 07:54:12;;;;;;;;;;;;;;;-0.30;98.47;100003.28;1735642;82;20435;-74
2021/12/18 07:56:38;;;;;;;;;;;;;;;-0.31;97.92;99998.94;1735561;82;20540;-75
2021/12/18 07:59:05;;;;;;;;;;;;;;;-0.31;97.62;100001.11;1735598;82;20469;-74
2021/12/18 08:01:31;;;;;;;;;;;;;;;-0.28;97.56;100006.56;1735824;82;21112;-74
2021/12/18 08:03:57;;;;;;;;;;;;;;;-0.28;96.52;100015.48;1735450;81;20106;-72
2021/12/18 08:06:24;;;;;;;;;;;;;;;-0.29;96.41;100013.84;1735913;82;20123;-72
2021/12/18 08:08:50;;;;;;;;;;;;;;;-0.30;96.30;100014.08;1735631;82;20207;-72
2021/12/18 08:11:18;;;;;;;;;;;;;;;-0.34;96.53;100021.28;1735626;82;20099;-72
2021/12/18 08:13:45;;;;;;;;;;;;;;;-0.34;97.11;100021.81;1735612;82;21526;-72
2021/12/18 08:16:11;;;;;;;;;;;;;;;-0.32;97.09;100025.09;1735490;82;20084;-74
2021/12/18 08:18:39;;;;;;;;;;;;;;;-0.32;97.07;100025.09;1739316;82;20075;-72
2021/12/18 08:21:05;;;;;;;;;;;;;;;-0.33;97.10;100031.55;1743410;82;20610;-73
2021/12/18 08:23:32;;;;;;;;;;;;;;;-0.29;97.35;100031.91;1743448;82;20087;-73
2021/12/18 08:25:58;;;;;;;;;;;;;;;-0.27;97.48;100034.66;1743441;82;21519;-72
2021/12/18 08:28:24;;;;;;;;;;;;;;;-0.23;97.47;100026.40;1743681;82;20095;-72
2021/12/18 08:30:50;;;;;;;;;;;;;;;-0.20;97.05;100018.36;1743495;82;20111;-73
2021/12/18 08:33:18;;;;;;;;;;;;;;;-0.18;96.44;100017.08;1743480;82;20098;-73
2021/12/18 08:35:44;;;;;;;;;;;;;;;-0.14;96.10;100016.08;1743478;82;20095;-72
2021/12/18 08:38:12;;;;;;;;;;;;;;;-0.15;95.39;100007.16;1743441;82;20111;-73
2021/12/18 08:40:41;;;;;;;;;;;;;;;-0.13;95.58;100010.45;1743388;82;20071;-73
2021/12/18 08:43:08;;;;;;;;;;;;;;;-0.09;96.50;100007.58;1743766;82;20511;-73
2021/12/18 08:45:34;;;;;;;;;;;;;;;-0.03;95.37;100001.77;1743382;82;20143;-73
2021/12/18 08:48:00;;;;;;;;;;;;;;;-0.04;94.36;99997.42;1743520;82;20151;-72
2021/12/18 08:50:27;;;;;;;;;;;;;;;-0.04;94.32;99992.03;1743533;82;21057;-72
2021/12/18 08:52:53;;;;;;;;;;;;;;;-0.07;92.85;99989.80;1743374;82;20083;-73
2021/12/18 08:55:20;;;;;;;;;;;;;;;-0.06;93.23;99991.44;1743420;82;20095;-72
2021/12/18 08:57:47;;;;;;;;;;;;;;;-0.06;93.11;99988.22;1743692;82;20154;-73
2021/12/18 09:00:16;;;;;;;;;;;;;;;-0.06;92.67;99979.30;1743354;82;20099;-72
2021/12/18 09:02:45;;;;;;;;;;;;;;;-0.08;91.35;99984.11;1743829;82;21114;-73
2021/12/18 09:05:11;;;;;;;;;;;;;;;-0.08;91.70;99985.45;1743472;81;20091;-75
2021/12/18 09:07:38;;;;;;;;;;;;;;;-0.07;90.97;99992.50;1743888;82;20195;-75
2021/12/18 09:10:05;;;;;;;;;;;;;;;-0.05;90.63;99991.20;1743570;82;20161;-74
2021/12/18 09:12:31;;;;;;;;;;;;;;;-0.06;88.93;99982.00;1743871;82;20071;-75
2021/12/18 09:14:59;;;;;;;;;;;;;;;-0.08;89.65;99988.98;1743637;82;21530;-74
2021/12/18 09:17:26;;;;;;;;;;;;;;;-0.07;90.05;99985.75;1743254;82;20417;-74
2021/12/18 09:19:54;;;;;;;;;;;;;;;-0.07;89.36;99981.17;1716414;82;20450;-75
2021/12/18 09:22:20;;;;;;;;;;;;;;;-0.07;89.75;99983.88;1744071;82;20438;-75
2021/12/18 09:24:46;;;;;;;;;;;;;;;-0.04;89.72;99986.10;1743965;82;20123;-75
2021/12/18 09:27:15;;;;;;;;;;;;;;;0.01;90.29;99978.62;1743822;82;21528;-74
2021/12/18 09:29:42;;;;;;;;;;;;;;;0.06;89.27;99978.73;1743357;82;20083;-74
2021/12/18 09:32:08;;;;;;;;;;;;;;;0.07;89.08;99974.97;1743031;82;20138;-75
2021/12/18 09:34:38;;;;;;;;;;;;;;;0.09;88.12;99976.08;1742195;82;20167;-74
2021/12/18 09:37:04;;;;;;;;;;;;;;;0.06;87.88;99965.23;1742293;82;20119;-71
2021/12/18 09:39:30;;;;;;;;;;;;;;;0.04;87.68;99978.67;1742593;82;21505;-72
2021/12/18 09:41:59;;;;;;;;;;;;;;;0.00;87.19;99976.44;1742223;82;20096;-72
2021/12/18 09:44:28;;;;;;;;;;;;;;;-0.02;87.82;99976.42;1742574;82;20075;-72
2021/12/18 09:46:55;;;;;;;;;;;;;;;-0.05;88.58;99977.71;1742233;82;20195;-72
2021/12/18 09:49:21;;;;;;;;;;;;;;;-0.07;88.01;99982.52;1742271;82;20072;-74
2021/12/18 09:51:48;;;;;;;;;;;;;;;-0.08;88.86;99985.45;1742248;82;21026;-73
2021/12/18 09:54:15;;;;;;;;;;;;;;;-0.07;89.13;99974.42;1700387;82;20141;-72
2021/12/18 09:56:42;;;;;;;;;;;;;;;-0.06;89.45;99973.38;1708018;82;20142;-78
2021/12/18 09:59:09;;;;;;;;;;;;;;;-0.03;89.67;99975.59;1743219;82;20099;-74
2021/12/18 10:01:35;;;;;;;;;;;;;;;-0.04;90.45;99973.95;1743327;82;20107;-74
2021/12/18 10:04:03;;;;;;;;;;;;;;;-0.01;92.45;99971.31;1743353;81;21497;-73
2021/12/18 10:06:44;;;;;;;;;;;;;;;0.03;92.74;99970.28;1743114;82;20134;-73
2021/12/18 10:09:20;;;;;;;;;;;;;;;0.05;91.77;99970.87;1743275;82;20119;-72
2021/12/18 10:11:51;;;;;;;;;;;;;;;0.01;92.00;99965.12;1741702;82;20408;-73
2021/12/18 10:14:19;;;;;;;;;;;;;;;-0.01;92.24;99962.69;1743132;82;20190;-74
2021/12/18 10:16:49;;;;;;;;;;;;;;;-0.10;91.76;99953.30;1743072;82;21150;-74
2021/12/18 10:19:30;;;;;;;;;;;;;;;-0.16;92.39;99951.55;1734840;82;20096;-74
2021/12/18 10:21:58;;;;;;;;;;;;;;;-0.22;93.14;99949.80;1727289;83;20438;-73
2021/12/18 10:24:25;;;;;;;;;;;;;;;-0.26;95.23;99939.17;1726985;83;20168;-73
2021/12/18 10:26:51;;;;;;;;;;;;;;;-0.28;95.09;99935.89;1727267;82;20099;-74
2021/12/18 10:29:30;;;;;;;;;;;;;;;-0.28;95.09;99935.07;1727100;83;21512;-73
2021/12/18 10:31:58;;;;;;;;;;;;;;;-0.25;95.71;99933.25;1727214;83;20088;-73
2021/12/18 10:34:26;;;;;;;;;;;;;;;-0.21;95.38;99931.20;1706878;83;20176;-73
2021/12/18 10:37:14;;;;;;;;;;;;;;;-0.20;95.34;99922.58;1727429;83;20801;-73
2021/12/18 10:39:44;;;;;;;;;;;;;;;-0.22;94.35;99912.02;1727016;83;20131;-73
2021/12/18 10:42:22;;;;;;;;;;;;;;;-0.21;94.63;99913.66;1725543;83;21017;-73
2021/12/18 10:45:12;;;;;;;;;;;;;;;-0.19;94.90;99914.24;1727056;82;20084;-75
2021/12/18 10:48:06;;;;;;;;;;;;;;;-0.27;93.98;99911.91;1726982;83;20112;-74
2021/12/18 10:50:42;;;;;;;;;;;;;;;-0.37;96.07;99914.38;1726918;83;20172;-79
2021/12/18 10:53:14;;;;;;;;;;;;;;;-0.35;96.82;99909.56;1726939;83;20458;-75
2021/12/18 10:55:50;;;;;;;;;;;;;;;-0.36;96.75;99911.44;1727094;82;21530;-76
2021/12/18 10:58:20;;;;;;;;;;;;;;;-0.36;97.59;99912.79;1726748;83;20092;-74
2021/12/18 11:00:59;;;;;;;;;;;;;;;-0.34;97.64;99909.86;1726865;83;20112;-75
2021/12/18 11:03:39;;;;;;;;;;;;;;;-0.35;97.66;99902.29;1727708;81;20120;-74
2021/12/18 11:06:14;;;;;;;;;;;;;;;-0.37;97.49;99910.33;1727755;83;20096;-73
2021/12/18 11:09:03;;;;;;;;;;;;;;;-0.41;98.03;99908.63;1727788;83;21176;-81
2021/12/18 11:14:07;;;;;;;;;;;;;;;-0.39;98.88;99904.34;1727577;83;20100;-77
2021/12/18 11:16:36;;;;;;;;;;;;;;;-0.40;98.73;99906.22;1727102;83;20174;-80
2021/12/18 11:19:04;;;;;;;;;;;;;;;-0.42;98.86;99911.56;1703334;83;20094;-78
2021/12/18 11:21:31;;;;;;;;;;;;;;;-0.40;99.46;99908.09;1680909;85;21121;-78
2021/12/18 11:24:05;;;;;;;;;;;;;;;-0.40;99.11;99909.45;1680945;85;20093;-78
2021/12/18 11:26:48;;;;;;;;;;;;;;;-0.43;98.92;99911.27;1680969;85;20086;-82
2021/12/18 11:29:20;;;;;;;;;;;;;;;-0.43;99.79;99903.17;1680962;85;20567;-78
2021/12/18 11:31:46;;;;;;;;;;;;;;;-0.40;99.78;99905.40;1681006;85;20114;-80
2021/12/18 11:34:13;;;;;;;;;;;;;;;-0.44;99.00;99901.00;1681275;85;21061;-76
2021/12/18 11:36:40;;;;;;;;;;;;;;;-0.47;99.10;99898.77;1681700;84;20098;-79
2021/12/18 11:39:08;;;;;;;;;;;;;;;-0.44;99.43;99897.48;1681287;85;20141;-81
2021/12/18 11:41:35;;;;;;;;;;;;;;;-0.42;99.24;99887.28;1681143;85;20118;-79
2021/12/18 11:44:03;;;;;;;;;;;;;;;-0.41;98.40;99888.92;1681258;85;20094;-78
2021/12/18 11:46:37;;;;;;;;;;;;;;;-0.41;98.04;99890.27;1663147;85;21794;-84
2021/12/18 11:49:07;;;;;;;;;;;;;;;-0.40;99.33;99881.94;1681087;85;20428;-82
2021/12/18 11:51:35;;;;;;;;;;;;;;;-0.41;97.92;99889.74;1680443;85;20078;-83
2021/12/18 11:54:06;;;;;;;;;;;;;;;-0.41;97.63;99884.88;1695273;83;20120;-76
2021/12/18 11:56:47;;;;;;;;;;;;;;;-0.41;97.37;99885.70;1726899;83;20119;-74
2021/12/18 11:59:13;;;;;;;;;;;;;;;-0.40;96.20;99880.59;1726975;83;21557;-76
2021/12/18 12:01:44;;;;;;;;;;;;;;;-0.38;95.82;99873.62;1726921;82;20124;-78
2021/12/18 12:04:11;;;;;;;;;;;;;;;-0.39;94.64;99877.38;1726859;81;20145;-85
2021/12/18 12:06:41;;;;;;;;;;;;;;;-0.40;94.39;99874.38;1727006;83;20168;-81
2021/12/18 12:09:28;;;;;;;;;;;;;;;-0.39;94.09;99875.49;1727184;83;20423;-84
2021/12/18 12:11:55;;;;;;;;;;;;;;;-0.36;94.77;99872.85;1726902;81;21136;-83
2021/12/18 12:14:24;;;;;;;;;;;;;;;-0.35;94.12;99867.75;1726894;82;20140;-85
2021/12/18 12:16:54;;;;;;;;;;;;;;;-0.37;92.84;99869.33;1726040;83;20119;-79
2021/12/18 12:19:26;;;;;;;;;;;;;;;-0.37;93.23;99865.81;1725207;82;20161;-83
2021/12/18 12:21:55;;;;;;;;;;;;;;;-0.36;93.98;99875.55;1725504;82;20133;-82
2021/12/18 12:24:26;;;;;;;;;;;;;;;-0.36;92.68;99876.38;1725380;83;21017;-81
2021/12/18 12:26:53;;;;;;;;;;;;;;;-0.38;92.46;99881.71;1725276;82;20088;-81
2021/12/18 12:29:20;;;;;;;;;;;;;;;-0.39;94.11;99879.54;1725558;82;20127;-79
2021/12/18 12:31:58;;;;;;;;;;;;;;;-0.36;95.02;99867.45;1725580;82;20235;-72
2021/12/18 12:34:27;;;;;;;;;;;;;;;-0.35;92.10;99876.66;1725973;83;20084;-76
2021/12/18 12:37:01;;;;;;;;;;;;;;;-0.38;90.93;99872.27;1725552;83;21589;-81
2021/12/18 12:39:48;;;;;;;;;;;;;;;-0.38;90.72;99873.62;1726050;83;20155;-82
2021/12/18 12:42:14;;;;;;;;;;;;;;;-0.38;91.10;99869.57;1726076;82;20113;-84
2021/12/18 12:44:51;;;;;;;;;;;;;;;-0.35;90.68;99875.84;1726092;83;20116;-78
2021/12/18 12:47:18;;;;;;;;;;;;;;;-0.36;90.15;99874.20;1724738;83;20120;-80
2021/12/18 12:49:47;;;;;;;;;;;;;;;-0.35;90.91;99879.36;1726338;82;21119;-86
2021/12/18 12:52:25;;;;;;;;;;;;;;;-0.33;89.93;99879.13;1726111;82;20120;-79
2021/12/18 12:55:03;;;;;;;;;;;;;;;-0.31;90.20;99884.28;1726418;83;20100;-77
2021/12/18 12:57:33;;;;;;;;;;;;;;;-0.31;90.18;99887.80;1724724;83;20096;-82
2021/12/18 13:00:09;;;;;;;;;;;;;;;-0.30;90.11;99884.05;1726448;83;20171;-84
2021/12/18 13:02:50;;;;;;;;;;;;;;;-0.31;90.18;99878.36;1726162;83;21128;-72
2021/12/18 13:05:16;;;;;;;;;;;;;;;-0.31;89.73;99874.31;1726053;83;20088;-79
2021/12/18 13:07:54;;;;;;;;;;;;;;;-0.34;89.22;99871.56;1726073;82;20127;-77
2021/12/18 13:10:26;;;;;;;;;;;;;;;-0.37;88.78;99869.86;1726092;82;20139;-79
2021/12/18 13:12:55;;;;;;;;;;;;;;;-0.38;89.25;99870.92;1726054;82;20151;-79
2021/12/18 13:15:21;;;;;;;;;;;;;;;-0.41;89.77;99862.77;1720128;83;21127;-79
2021/12/18 13:17:49;;;;;;;;;;;;;;;-0.42;89.39;99865.70;1715527;82;20241;-77
2021/12/18 13:20:15;;;;;;;;;;;;;;;-0.47;89.11;99866.94;1688340;83;20119;-79
2021/12/18 13:22:45;;;;;;;;;;;;;;;-0.49;90.79;99869.87;1727784;83;20139;-80
2021/12/18 13:25:13;;;;;;;;;;;;;;;-0.45;90.81;99870.22;1726219;83;20130;-78
2021/12/18 13:27:42;;;;;;;;;;;;;;;-0.45;90.46;99875.09;1727793;83;21070;-77
2021/12/18 13:30:16;;;;;;;;;;;;;;;-0.47;90.01;99862.36;1721843;83;20112;-79
2021/12/18 13:32:56;;;;;;;;;;;;;;;-0.50;90.86;99870.11;1708558;83;20170;-80
2021/12/18 13:35:24;;;;;;;;;;;;;;;-0.52;92.27;99860.08;1708113;82;20599;-75
2021/12/18 13:38:07;;;;;;;;;;;;;;;-0.53;92.11;99853.87;1706940;82;20448;-73
2021/12/18 13:40:40;;;;;;;;;;;;;;;-0.51;92.73;99849.59;1707268;83;20768;-74
2021/12/18 13:43:11;;;;;;;;;;;;;;;-0.55;92.58;99850.59;1704405;82;20342;-75